Sunday, November 18, 2018, 9:24 AM EST
Back to Local

KUKT, Quakertown, Quakertown Airport

Location: Quakertown, PA, United States Lat: 40.435
Local Time: 9:24 AM EST (14:24 GMT) Lon: -75.382
Time Zone: US/Eastern Elev: 524 ft

Show me the last for .
Show Decoded

2018-11-18 09:15 METAR KUKT 181415Z AUTO 00000KT 10SM OVC043 02/00 A3037 RMK A01 =
2018-11-18 08:55 METAR KUKT 181355Z AUTO 00000KT 10SM OVC043 01/00 A3038 RMK A01 =
2018-11-18 08:35 METAR KUKT 181335Z AUTO 00000KT 10SM OVC044 01/M00 A3038 RMK A01 =
2018-11-18 08:15 METAR KUKT 181315Z AUTO 00000KT 9SM OVC045 00/M00 A3037 RMK A01 =
2018-11-18 07:55 METAR KUKT 181255Z AUTO 00000KT 9SM OVC048 M00/M00 A3037 RMK A01 =
2018-11-18 07:35 METAR KUKT 181235Z AUTO 00000KT 8SM OVC049 M00/M01 A3037 RMK A01 =
2018-11-18 07:15 METAR KUKT 181215Z AUTO 00000KT 7SM OVC050 M01/M01 A3036 RMK A01 =
2018-11-18 06:55 METAR KUKT 181155Z AUTO 00000KT 7SM BKN050 BKN100 M01/M01 A3036 RMK A01 =
2018-11-18 06:35 METAR KUKT 181135Z AUTO 00000KT 10SM SCT050 SCT100 M01/M02 A3035 RMK A01 =
2018-11-18 06:15 METAR KUKT 181115Z AUTO 00000KT 9SM SCT050 M01/M01 A3035 RMK A01 =
2018-11-18 05:55 METAR KUKT 181055Z AUTO 00000KT 10SM CLR M01/M01 A3034 RMK A01 =
2018-11-18 05:35 METAR KUKT 181035Z AUTO 00000KT 10SM CLR M01/M01 A3034 RMK A01 =
2018-11-18 05:15 METAR KUKT 181015Z AUTO 00000KT 10SM CLR M01/M01 A3034 RMK A01 =
2018-11-18 04:55 METAR KUKT 180955Z AUTO 00000KT 10SM CLR M01/M01 A3034 RMK A01 =
2018-11-18 04:35 METAR KUKT 180935Z AUTO 00000KT 10SM FEW110 M00/M01 A3033 RMK A01 =
2018-11-18 04:15 METAR KUKT 180915Z AUTO 00000KT 10SM FEW030 OVC110 M00/M01 A3032 RMK A01 =
2018-11-18 03:55 METAR KUKT 180855Z AUTO 00000KT 10SM BKN029 OVC110 M00/M01 A3032 RMK A01 =
2018-11-18 03:35 METAR KUKT 180835Z AUTO 00000KT 10SM BKN029 M01/M01 A3032 RMK A01 =
2018-11-18 03:15 METAR KUKT 180815Z AUTO 00000KT 10SM FEW025 M01/M01 A3032 RMK A01 =
2018-11-18 02:55 METAR KUKT 180755Z AUTO 00000KT 10SM FEW025 FEW120 M00/M01 A3032 RMK A01 =
2018-11-18 02:35 METAR KUKT 180735Z AUTO 00000KT 10SM FEW026 FEW120 M00/M01 A3032 RMK A01 =
2018-11-18 02:15 METAR KUKT 180715Z AUTO 00000KT 10SM BKN025 00/M01 A3032 RMK A01 =
2018-11-18 01:55 METAR KUKT 180655Z AUTO 00000KT 10SM FEW025 00/M01 A3031 RMK A01 =
2018-11-18 01:35 METAR KUKT 180635Z AUTO 00000KT 10SM CLR 00/M01 A3031 RMK A01 =
2018-11-18 01:15 METAR KUKT 180615Z AUTO 00000KT 10SM CLR 01/M01 A3030 RMK A01 =
2018-11-18 00:55 METAR KUKT 180555Z AUTO 00000KT 10SM BKN120 01/M01 A3030 RMK A01 =
2018-11-18 00:35 METAR KUKT 180535Z AUTO 00000KT 10SM OVC120 02/M01 A3030 RMK A01 =
2018-11-18 00:15 METAR KUKT 180515Z AUTO 00000KT 10SM OVC120 02/M01 A3031 RMK A01 =
2018-11-17 23:55 METAR KUKT 180455Z AUTO 00000KT 10SM OVC120 02/M01 A3030 RMK A01 =
2018-11-17 23:35 METAR KUKT 180435Z AUTO 00000KT 10SM SCT120 01/M01 A3030 RMK A01 =
2018-11-17 23:15 METAR KUKT 180415Z AUTO 00000KT 10SM CLR 03/M01 A3030 RMK A01 =
2018-11-17 22:55 METAR KUKT 180355Z AUTO 00000KT 10SM CLR 03/M01 A3030 RMK A01 =
2018-11-17 22:35 METAR KUKT 180335Z AUTO 00000KT 10SM CLR 03/M02 A3030 RMK A01 =
2018-11-17 22:15 METAR KUKT 180315Z AUTO 26003KT 10SM CLR 03/M02 A3030 RMK A01 =
2018-11-17 21:55 METAR KUKT 180255Z AUTO 00000KT 10SM SCT039 04/M01 A3029 RMK A01 =
2018-11-17 21:35 METAR KUKT 180235Z AUTO 00000KT 10SM OVC038 04/M01 A3029 RMK A01 =
2018-11-17 21:15 METAR KUKT 180215Z AUTO 24003KT 10SM BKN039 BKN044 04/M01 A3029 RMK A01 =
2018-11-17 20:35 METAR KUKT 180135Z AUTO 25004KT 10SM OVC038 05/M01 A3028 RMK A01 =
2018-11-17 20:15 METAR KUKT 180115Z AUTO 25004KT 10SM OVC039 05/M01 A3028 RMK A01 =
2018-11-17 19:55 METAR KUKT 180055Z AUTO 25004KT 10SM OVC039 05/M01 A3028 RMK A01 =
2018-11-17 19:35 METAR KUKT 180035Z AUTO VRB03KT 10SM OVC037 05/M01 A3027 RMK A01 =
2018-11-17 19:15 METAR KUKT 180015Z AUTO 00000KT 10SM OVC035 05/M01 A3027 RMK A01 =
2018-11-17 18:55 METAR KUKT 172355Z AUTO 00000KT 10SM OVC035 05/M01 A3026 RMK A01 =
2018-11-17 18:35 METAR KUKT 172335Z AUTO 27004KT 10SM OVC035 05/M01 A3026 RMK A01 =
2018-11-17 18:15 METAR KUKT 172315Z AUTO 29003KT 10SM OVC036 05/M01 A3026 RMK A01 =
2018-11-17 17:55 METAR KUKT 172255Z AUTO VRB03KT 10SM OVC036 05/M01 A3025 RMK A01 =
2018-11-17 17:35 METAR KUKT 172235Z AUTO VRB04KT 10SM OVC037 06/M01 A3025 RMK A01 =
2018-11-17 17:15 METAR KUKT 172215Z AUTO 27003KT 10SM OVC037 06/M01 A3024 RMK A01 =
2018-11-17 16:55 METAR KUKT 172155Z AUTO 26005KT 10SM OVC039 06/M01 A3024 RMK A01 =
2018-11-17 16:35 METAR KUKT 172135Z AUTO VRB03KT 10SM OVC039 06/M01 A3024 RMK A01 =
2018-11-17 16:15 METAR KUKT 172115Z AUTO 00000KT 10SM OVC039 06/M01 A3023 RMK A01 =
2018-11-17 15:55 METAR KUKT 172055Z AUTO 25006KT 10SM OVC039 06/M01 A3022 RMK A01 =
2018-11-17 15:35 METAR KUKT 172035Z AUTO 25004KT 10SM OVC039 06/M01 A3021 RMK A01 =
2018-11-17 15:15 METAR KUKT 172015Z AUTO VRB05G10KT 10SM OVC039 07/M01 A3020 RMK A01 =
2018-11-17 14:55 METAR KUKT 171955Z AUTO 25003KT 10SM OVC038 07/M01 A3019 RMK A01 =
2018-11-17 14:35 METAR KUKT 171935Z AUTO VRB04KT 10SM OVC037 06/M01 A3019 RMK A01 =
2018-11-17 14:15 METAR KUKT 171915Z AUTO VRB04KT 10SM OVC036 06/M01 A3020 RMK A01 =
2018-11-17 13:55 METAR KUKT 171855Z AUTO 26005KT 10SM OVC036 07/M01 A3019 RMK A01 =
2018-11-17 13:35 METAR KUKT 171835Z AUTO VRB06KT 10SM BKN037 06/M01 A3019 RMK A01 =
2018-11-17 13:15 METAR KUKT 171815Z AUTO VRB05G13KT 10SM OVC036 06/M01 A3019 RMK A01 =
2018-11-17 12:55 METAR KUKT 171755Z AUTO 26007KT 230V290 10SM OVC036 06/M01 A3019 RMK A01 =
2018-11-17 12:35 METAR KUKT 171735Z AUTO VRB05KT 10SM OVC038 07/M01 A3019 RMK A01 =
2018-11-17 12:15 METAR KUKT 171715Z AUTO 25005KT 10SM BKN038 06/M01 A3020 RMK A01 =
2018-11-17 11:55 METAR KUKT 171655Z AUTO VRB06KT 10SM BKN036 06/M01 A3021 RMK A01 =
2018-11-17 11:35 METAR KUKT 171635Z AUTO 26005KT 10SM BKN035 06/M01 A3021 RMK A01 =
2018-11-17 11:15 METAR KUKT 171615Z AUTO 27008KT 230V290 10SM OVC036 06/M01 A3021 RMK A01 =
2018-11-17 10:55 METAR KUKT 171555Z AUTO 27006KT 10SM OVC037 06/M01 A3021 RMK A01 =
2018-11-17 10:35 METAR KUKT 171535Z AUTO VRB06G13KT 10SM BKN034 06/M01 A3021 RMK A01 =
2018-11-17 10:15 METAR KUKT 171515Z AUTO 30006KT 10SM BKN036 06/M01 A3020 RMK A01 =
2018-11-17 09:55 METAR KUKT 171455Z AUTO VRB03G10KT 10SM OVC038 06/M01 A3019 RMK A01 =
2018-11-17 09:35 METAR KUKT 171435Z AUTO 26007KT 10SM OVC038 05/M01 A3019 RMK A01 =

Support USWX by starting your Amazon purchase here.